Dana Pride — WE00 — position and weather

sailwx.info

Track history (hours):
 
Tides and Currents Weather Stations Pressure Air Temp Water Temp Dewpoint Dewpoint Depression Visibility Wind Speed Wind Dir Waves Ship Positions

Dana Pride

Last reported at 2018-Aug-16 08:30 UTC. Time now 2018-Aug-16 08:44 UTC.
Position N 33°28' W 117°42'.

Type: Fishing. MMSI: 366849310.

Date/timePositionNaut miles runAvg speedWind from/ knotsBaromVisibWave heightAir tempDewpointWater temp
2018-Aug-16 08:30N 33°28' W 117°42'0 0.0
2018-Aug-16 08:00N 33°28' W 117°42'0 0.0
2018-Aug-16 07:30N 33°28' W 117°42'0 0.0
2018-Aug-16 07:00N 33°28' W 117°42'0 0.0
2018-Aug-16 06:30N 33°28' W 117°42'0 0.0
2018-Aug-16 06:00N 33°28' W 117°42'0 0.0
2018-Aug-16 05:30N 33°28' W 117°42'0 0.0
2018-Aug-16 05:00N 33°28' W 117°42'0 0.0
2018-Aug-16 04:30N 33°28' W 117°42'0 0.0
2018-Aug-16 04:00N 33°28' W 117°42'0 0.0
2018-Aug-16 03:30N 33°28' W 117°42'0 0.0
2018-Aug-16 03:00N 33°28' W 117°42'0 0.0
2018-Aug-16 02:30N 33°28' W 117°42'0 0.0
2018-Aug-16 02:00N 33°28' W 117°42'3 5.9
2018-Aug-16 01:30N 33°25' W 117°44'3 5.4
2018-Aug-16 01:00N 33°23' W 117°46'3 5.1
2018-Aug-16 00:30N 33°26' W 117°45'4 7.1
2018-Aug-16 00:00N 33°28' W 117°42'0 0.0
2018-Aug-15 23:31N 33°28' W 117°42'0 0.2
2018-Aug-15 23:00N 33°28' W 117°41'0 0.1
2018-Aug-15 22:30N 33°28' W 117°41'3 5.6
2018-Aug-15 22:00N 33°29' W 117°45'611.0
2018-Aug-15 21:30N 33°33' W 117°49'1 2.9
2018-Aug-15 21:00N 33°34' W 117°50'1 2.4
2018-Aug-15 20:30N 33°35' W 117°51'0 0.2
2018-Aug-15 20:00N 33°35' W 117°51'1 1.0
2018-Aug-15 19:30N 33°35' W 117°52'2 4.2
2018-Aug-15 18:57N 33°35' W 117°55'3 6.6
2018-Aug-15 18:30N 33°36' W 117°58'0 0.0
2018-Aug-15 17:59N 33°36' W 117°58'1 1.2
2018-Aug-15 17:30N 33°36' W 117°57'5 9.9
2018-Aug-15 16:59N 33°35' W 117°51'0 0.1
2018-Aug-15 16:30N 33°35' W 117°51'0 0.0
2018-Aug-15 16:00N 33°35' W 117°51'0 0.4
2018-Aug-15 15:30N 33°34' W 117°51'1 1.9
2018-Aug-15 15:00N 33°34' W 117°50'1 2.1
2018-Aug-15 14:30N 33°33' W 117°50'510.6
2018-Aug-15 14:00N 33°29' W 117°46'4 8.4
2018-Aug-15 13:30N 33°28' W 117°41'0 0.2
2018-Aug-15 13:00N 33°28' W 117°42'0 0.0
2018-Aug-15 12:31N 33°28' W 117°42'0 0.0
2018-Aug-15 12:01N 33°28' W 117°42'0 0.0
2018-Aug-15 11:30N 33°28' W 117°42'0 0.0
2018-Aug-15 11:00N 33°28' W 117°42'0 0.0
2018-Aug-15 10:30N 33°28' W 117°42'0 0.0
2018-Aug-15 10:00N 33°28' W 117°42'0 0.0
2018-Aug-15 09:27N 33°28' W 117°42'0 0.0
2018-Aug-15 09:00N 33°28' W 117°42'0 0.0
2018-Aug-15 08:30N 33°28' W 117°42'0 0.0
2018-Aug-15 08:00N 33°28' W 117°42'0 0.0
2018-Aug-15 07:29N 33°28' W 117°42'0 0.0
2018-Aug-15 07:00N 33°28' W 117°42'0 0.0
2018-Aug-15 06:30N 33°28' W 117°42'0 0.0
2018-Aug-15 06:00N 33°28' W 117°42'0 0.0
2018-Aug-15 05:31N 33°28' W 117°42'0 0.0
2018-Aug-15 05:00N 33°28' W 117°42'0 0.0
2018-Aug-15 04:30N 33°28' W 117°42'0 0.0
2018-Aug-15 04:00N 33°28' W 117°42'0 0.0
2018-Aug-15 03:31N 33°28' W 117°42'0 0.0
2018-Aug-15 03:00N 33°28' W 117°42'0 0.0
2018-Aug-15 02:30N 33°28' W 117°42'0 0.0
2018-Aug-15 02:00N 33°28' W 117°42'2 3.9
2018-Aug-15 01:30N 33°26' W 117°43'1 1.2
2018-Aug-15 01:00N 33°25' W 117°43'1 1.3
2018-Aug-15 00:30N 33°26' W 117°44'3 5.8
2018-Aug-15 00:00N 33°28' W 117°42'0 0.0
2018-Aug-14 23:30N 33°28' W 117°42'1 1.1
2018-Aug-14 23:00N 33°27' W 117°42'4 7.5
2018-Aug-14 22:30N 33°26' W 117°46'1 1.8
2018-Aug-14 22:00N 33°25' W 117°46'2 4.6
2018-Aug-14 21:30N 33°26' W 117°43'2 4.3
2018-Aug-14 21:00N 33°28' W 117°42'4 7.8
2018-Aug-14 20:30N 33°25' W 117°45'2 3.7
2018-Aug-14 20:00N 33°25' W 117°47'2 4.6
2018-Aug-14 19:30N 33°27' W 117°45'3 6.1
2018-Aug-14 19:00N 33°28' W 117°42'3 5.9
2018-Aug-14 18:30N 33°28' W 117°45'1 2.2
2018-Aug-14 18:00N 33°27' W 117°46'2 3.8
2018-Aug-14 17:29N 33°25' W 117°44'3 6.6
2018-Aug-14 17:00N 33°28' W 117°42'0 0.0
2018-Aug-14 16:30N 33°28' W 117°42'0 0.0
2018-Aug-14 16:00N 33°28' W 117°42'0 0.0
2018-Aug-14 15:30N 33°28' W 117°42'0 0.0
2018-Aug-14 15:00N 33°28' W 117°42'0 0.0
2018-Aug-14 14:30N 33°28' W 117°42'0 0.0
2018-Aug-14 14:00N 33°28' W 117°42'0 0.0
2018-Aug-14 13:30N 33°28' W 117°42'0 0.0
2018-Aug-14 13:00N 33°28' W 117°42'0 0.0
2018-Aug-14 12:30N 33°28' W 117°42'0 0.0
2018-Aug-14 12:00N 33°28' W 117°42'0 0.0
2018-Aug-14 11:30N 33°28' W 117°42'0 0.0
2018-Aug-14 11:00N 33°28' W 117°42'0 0.0
2018-Aug-14 10:30N 33°28' W 117°42'0 0.0
2018-Aug-14 10:00N 33°28' W 117°42'0 0.0
2018-Aug-14 09:30N 33°28' W 117°42'0 0.0
2018-Aug-14 09:00N 33°28' W 117°42'0 0.0
2018-Aug-14 08:30N 33°28' W 117°42'0 0.0
2018-Aug-14 08:00N 33°28' W 117°42'0 0.0
2018-Aug-14 07:30N 33°28' W 117°42'0 0.0
2018-Aug-14 07:00N 33°28' W 117°42'0 0.0
2018-Aug-14 06:30N 33°28' W 117°42'0 0.0
2018-Aug-14 05:59N 33°28' W 117°42'0 0.0
2018-Aug-14 05:29N 33°28' W 117°42'0 0.0
2018-Aug-14 04:59N 33°28' W 117°42'0 0.0
2018-Aug-14 04:30N 33°28' W 117°42'0 0.0
2018-Aug-14 04:00N 33°28' W 117°42'0 0.0
2018-Aug-14 03:30N 33°28' W 117°42'0 0.0
2018-Aug-14 03:00N 33°28' W 117°42'0 0.0
2018-Aug-14 02:30N 33°28' W 117°42'0 0.0
2018-Aug-14 01:58N 33°28' W 117°42'0 0.0
2018-Aug-14 01:30N 33°28' W 117°42'0 0.0
2018-Aug-14 01:00N 33°28' W 117°42'0 0.0
2018-Aug-14 00:30N 33°28' W 117°42'2 4.2
2018-Aug-14 00:00N 33°26' W 117°40'4 8.7
2018-Aug-13 23:30N 33°23' W 117°36'0 0.0
2018-Aug-13 23:00N 33°23' W 117°36'0 0.7
2018-Aug-13 22:30N 33°23' W 117°37'0 0.0
2018-Aug-13 22:00N 33°23' W 117°37'0 0.1
2018-Aug-13 21:30N 33°23' W 117°37'0 0.8
2018-Aug-13 21:00N 33°23' W 117°37'0 0.0
2018-Aug-13 20:30N 33°23' W 117°37'1 2.5
2018-Aug-13 20:00N 33°24' W 117°38'4 8.9
2018-Aug-13 19:30N 33°27' W 117°42'0 0.4
2018-Aug-13 19:00N 33°28' W 117°42'0 0.0
2018-Aug-13 18:29N 33°28' W 117°42'0 0.5
2018-Aug-13 18:00N 33°27' W 117°42'2 4.0
2018-Aug-13 17:30N 33°27' W 117°44'2 4.1
2018-Aug-13 17:00N 33°28' W 117°42'0 0.0
2018-Aug-13 16:30N 33°28' W 117°42'0 0.0
2018-Aug-13 16:00N 33°28' W 117°42'0 0.0
2018-Aug-13 15:30N 33°28' W 117°42'0 0.0
2018-Aug-13 15:00N 33°28' W 117°42'0 0.0
2018-Aug-13 14:30N 33°28' W 117°42'0 0.0
2018-Aug-13 14:00N 33°28' W 117°42'0 0.0
2018-Aug-13 13:30N 33°28' W 117°42'0 0.0
2018-Aug-13 13:00N 33°28' W 117°42'0 0.0
2018-Aug-13 12:30N 33°28' W 117°42'0 0.0
2018-Aug-13 12:00N 33°28' W 117°42'0 0.0
2018-Aug-13 11:30N 33°28' W 117°42'0 0.0
2018-Aug-13 11:00N 33°28' W 117°42'0 0.0
2018-Aug-13 10:30N 33°28' W 117°42'0 0.0
2018-Aug-13 10:00N 33°28' W 117°42'0 0.0
2018-Aug-13 09:30N 33°28' W 117°42'0 0.0
2018-Aug-13 09:00N 33°28' W 117°42'0 0.0
2018-Aug-13 08:30N 33°28' W 117°42'0 0.0
2018-Aug-13 07:59N 33°28' W 117°42'0 0.0
2018-Aug-13 07:30N 33°28' W 117°42'0 0.0
2018-Aug-13 07:00N 33°28' W 117°42'0 0.0
2018-Aug-13 06:30N 33°28' W 117°42'0 0.0
2018-Aug-13 06:00N 33°28' W 117°42'0 0.0
2018-Aug-13 05:30N 33°28' W 117°42'0 0.0
2018-Aug-13 05:00N 33°28' W 117°42'0 0.0
2018-Aug-13 04:30N 33°28' W 117°42'0 0.0
2018-Aug-13 04:00N 33°28' W 117°42'0 0.0
2018-Aug-13 03:30N 33°28' W 117°42'0 0.0
2018-Aug-13 03:00N 33°28' W 117°42'0 0.0
2018-Aug-13 02:30N 33°28' W 117°42'0 0.0
2018-Aug-13 02:00N 33°28' W 117°42'0 0.0
2018-Aug-13 01:30N 33°28' W 117°42'0 0.0
2018-Aug-13 00:57N 33°28' W 117°42'0 0.0
2018-Aug-13 00:30N 33°28' W 117°42'1 2.4
2018-Aug-13 00:00N 33°27' W 117°43'611.1
2018-Aug-12 23:30N 33°26' W 117°49'611.3
2018-Aug-12 23:00N 33°24' W 117°56'611.4
2018-Aug-12 22:30N 33°23' W 118°02'611.3
2018-Aug-12 22:00N 33°22' W 118°09'611.5
2018-Aug-12 21:30N 33°20' W 118°16'2 4.8
2018-Aug-12 21:00N 33°19' W 118°18'0 0.9
2018-Aug-12 20:30N 33°19' W 118°18'3 5.2
2018-Aug-12 19:59N 33°18' W 118°21'0 0.0
2018-Aug-12 19:29N 33°18' W 118°21'1 1.8
2018-Aug-12 19:00N 33°19' W 118°22'0 0.1
2018-Aug-12 18:30N 33°19' W 118°22'2 4.4
2018-Aug-12 18:00N 33°19' W 118°25'0 0.4
2018-Aug-12 17:30N 33°19' W 118°25'3 5.6
2018-Aug-12 16:56N 33°18' W 118°21'0 0.1
2018-Aug-12 16:30N 33°18' W 118°21'2 3.0
2018-Aug-12 16:00N 33°18' W 118°19'611.1
2018-Aug-12 15:30N 33°19' W 118°13'4 8.5
2018-Aug-12 15:00N 33°20' W 118°08'511.0
2018-Aug-12 14:30N 33°22' W 118°02'510.8
2018-Aug-12 14:00N 33°23' W 117°56'611.0
2018-Aug-12 13:30N 33°25' W 117°49'510.9
2018-Aug-12 13:00N 33°26' W 117°43'2 3.5
2018-Aug-12 12:30N 33°27' W 117°41'0 0.2
2018-Aug-12 12:00N 33°28' W 117°42'0 0.0
2018-Aug-12 11:30N 33°28' W 117°42'0 0.0
2018-Aug-12 11:00N 33°28' W 117°42'0 0.0
2018-Aug-12 10:30N 33°28' W 117°42'0 0.0
2018-Aug-12 10:00N 33°28' W 117°42'0 0.0
2018-Aug-12 09:30N 33°28' W 117°42'0 0.0
2018-Aug-12 09:00N 33°28' W 117°42'0 0.0
2018-Aug-12 08:30N 33°28' W 117°42'0 0.0
2018-Aug-12 08:00N 33°28' W 117°42'0 0.0
2018-Aug-12 07:30N 33°28' W 117°42'0 0.0
2018-Aug-12 07:00N 33°28' W 117°42'0 0.0
2018-Aug-12 06:30N 33°28' W 117°42'0 0.0
2018-Aug-12 06:00N 33°28' W 117°42'0 0.0
2018-Aug-12 05:28N 33°28' W 117°42'0 0.0
2018-Aug-12 05:00N 33°28' W 117°42'0 0.1
2018-Aug-12 04:30N 33°28' W 117°42'0 0.1
2018-Aug-12 04:00N 33°28' W 117°42'0 0.9
2018-Aug-12 03:30N 33°28' W 117°42'0 0.9
2018-Aug-12 03:00N 33°28' W 117°42'0 0.0
2018-Aug-12 02:30N 33°28' W 117°42'0 0.0
2018-Aug-12 02:00N 33°28' W 117°42'0 0.5
2018-Aug-12 01:30N 33°27' W 117°42'0 0.5
2018-Aug-12 01:00N 33°28' W 117°42'0 0.0
2018-Aug-12 00:30N 33°28' W 117°42'0 0.0
2018-Aug-12 00:00N 33°28' W 117°42'3 6.9
2018-Aug-11 23:30N 33°24' W 117°40'3 6.0
2018-Aug-11 23:00N 33°23' W 117°37'0 0.0
2018-Aug-11 22:30N 33°23' W 117°37'0 0.0
2018-Aug-11 22:00N 33°23' W 117°37'0 0.0
2018-Aug-11 21:30N 33°23' W 117°37'0 0.1
2018-Aug-11 21:00N 33°23' W 117°37'2 3.6
2018-Aug-11 20:30N 33°24' W 117°38'0 0.0
2018-Aug-11 20:00N 33°24' W 117°38'1 1.4
2018-Aug-11 19:30N 33°25' W 117°39'4 7.1
2018-Aug-11 19:00N 33°28' W 117°42'0 0.8
2018-Aug-11 18:30N 33°27' W 117°42'2 4.7
2018-Aug-11 18:00N 33°28' W 117°44'0 0.0
2018-Aug-11 17:30N 33°28' W 117°44'0 0.2
2018-Aug-11 17:00N 33°29' W 117°44'0 0.0
2018-Aug-11 16:30N 33°29' W 117°44'0 0.3
2018-Aug-11 15:59N 33°28' W 117°44'0 0.0
2018-Aug-11 15:30N 33°28' W 117°44'0 0.0
2018-Aug-11 15:00N 33°28' W 117°44'0 0.0
2018-Aug-11 14:30N 33°28' W 117°44'3 5.2
2018-Aug-11 14:00N 33°27' W 117°42'1 2.2
2018-Aug-11 13:30N 33°28' W 117°42'0 0.0
2018-Aug-11 13:00N 33°28' W 117°42'0 0.0
2018-Aug-11 12:30N 33°28' W 117°42'0 0.0
2018-Aug-11 12:00N 33°28' W 117°42'0 0.0
2018-Aug-11 11:30N 33°28' W 117°42'0 0.0
2018-Aug-11 11:00N 33°28' W 117°42'0 0.0
2018-Aug-11 10:30N 33°28' W 117°42'0 0.0
2018-Aug-11 10:00N 33°28' W 117°42'0 0.0
2018-Aug-11 09:30N 33°28' W 117°42'0 0.0
2018-Aug-11 09:00N 33°28' W 117°42'0 0.0
2018-Aug-11 08:30N 33°28' W 117°42'0 0.0
2018-Aug-11 08:00N 33°28' W 117°42'0 0.0
2018-Aug-11 07:30N 33°28' W 117°42'0 0.0
2018-Aug-11 07:00N 33°28' W 117°42'0 0.0
2018-Aug-11 06:30N 33°28' W 117°42'0 0.0
2018-Aug-11 06:00N 33°28' W 117°42'0 0.0
2018-Aug-11 05:30N 33°28' W 117°42'0 0.0
2018-Aug-11 05:00N 33°28' W 117°42'0 0.0
2018-Aug-11 04:30N 33°28' W 117°42'0 0.0
2018-Aug-11 04:00N 33°28' W 117°42'0 0.0
2018-Aug-11 03:30N 33°28' W 117°42'0 0.0
2018-Aug-11 03:00N 33°28' W 117°42'0 0.0
2018-Aug-11 02:30N 33°28' W 117°42'0 0.4
2018-Aug-11 02:00N 33°27' W 117°42'2 4.6
2018-Aug-11 01:30N 33°25' W 117°42'1 1.3
2018-Aug-11 01:00N 33°25' W 117°42'1 1.9
2018-Aug-11 00:30N 33°25' W 117°42'2 4.4
2018-Aug-11 00:00N 33°28' W 117°42'0 0.0
2018-Aug-10 23:30N 33°28' W 117°42'0 0.0
2018-Aug-10 23:00N 33°28' W 117°42'0 0.0
2018-Aug-10 22:30N 33°28' W 117°42'1 2.9
2018-Aug-10 22:00N 33°27' W 117°43'510.7
2018-Aug-10 21:30N 33°31' W 117°48'511.0
2018-Aug-10 21:00N 33°34' W 117°54'4 8.4
2018-Aug-10 20:30N 33°36' W 117°58'0 0.1
2018-Aug-10 20:00N 33°36' W 117°58'0 0.3
2018-Aug-10 19:29N 33°36' W 117°58'0 0.1
2018-Aug-10 19:00N 33°36' W 117°58'0 0.0
2018-Aug-10 18:30N 33°36' W 117°58'0 0.0
2018-Aug-10 18:00N 33°36' W 117°58'2 4.0
2018-Aug-10 17:30N 33°35' W 117°56'4 7.2
2018-Aug-10 16:59N 33°35' W 117°51'0 0.0
2018-Aug-10 16:30N 33°35' W 117°51'1 2.2
2018-Aug-10 16:00N 33°34' W 117°50'0 0.0
2018-Aug-10 15:30N 33°34' W 117°50'0 0.5
2018-Aug-10 15:00N 33°34' W 117°50'4 8.9
2018-Aug-10 14:30N 33°29' W 117°50'5 9.2
2018-Aug-10 14:00N 33°26' W 117°46'4 7.5
2018-Aug-10 13:30N 33°27' W 117°41'0 0.2
2018-Aug-10 13:00N 33°28' W 117°42'0 0.0
2018-Aug-10 12:30N 33°28' W 117°42'0 0.0
2018-Aug-10 12:00N 33°28' W 117°42'0 0.0
2018-Aug-10 11:30N 33°28' W 117°42'0 0.0
2018-Aug-10 11:00N 33°28' W 117°42'0 0.0
2018-Aug-10 10:30N 33°28' W 117°42'0 0.0
2018-Aug-10 10:00N 33°28' W 117°42'0 0.0
2018-Aug-10 09:30N 33°28' W 117°42'0 0.0
2018-Aug-10 09:00N 33°28' W 117°42'0 0.0
2018-Aug-10 08:30N 33°28' W 117°42'0 0.0
2018-Aug-10 08:00N 33°28' W 117°42'0 0.0
2018-Aug-10 07:30N 33°28' W 117°42'0 0.0
2018-Aug-10 07:00N 33°28' W 117°42'0 0.0
2018-Aug-10 06:30N 33°28' W 117°42'0 0.0
2018-Aug-10 06:00N 33°28' W 117°42'0 0.0
2018-Aug-10 05:22N 33°28' W 117°42'0 0.0
2018-Aug-10 05:00N 33°28' W 117°42'0 0.0
2018-Aug-10 04:30N 33°28' W 117°42'0 0.0
2018-Aug-10 04:00N 33°28' W 117°42'0 0.0
2018-Aug-10 03:30N 33°28' W 117°42'0 0.0
2018-Aug-10 03:00N 33°28' W 117°42'0 0.0
2018-Aug-10 02:30N 33°28' W 117°42'0 0.1
2018-Aug-10 02:00N 33°28' W 117°42'3 6.7
2018-Aug-10 01:30N 33°25' W 117°44'1 2.1
2018-Aug-10 01:00N 33°26' W 117°43'1 1.6
2018-Aug-10 00:30N 33°26' W 117°42'2 4.3
2018-Aug-10 00:00N 33°28' W 117°42'0 0.0
2018-Aug-09 23:30N 33°28' W 117°42'1 2.8
2018-Aug-09 23:00N 33°27' W 117°43'1 1.7
2018-Aug-09 22:30N 33°26' W 117°43'1 2.3
2018-Aug-09 22:00N 33°25' W 117°42'0 0.9
2018-Aug-09 21:30N 33°25' W 117°43'2 4.9
2018-Aug-09 21:01N 33°28' W 117°42'3 5.2
2018-Aug-09 20:30N 33°26' W 117°44'2 3.4
2018-Aug-09 20:00N 33°25' W 117°42'0 0.4
2018-Aug-09 19:30N 33°25' W 117°42'3 5.1
2018-Aug-09 19:00N 33°28' W 117°42'2 4.8
2018-Aug-09 18:30N 33°25' W 117°42'2 3.9
2018-Aug-09 18:00N 33°23' W 117°42'2 3.4
2018-Aug-09 17:30N 33°24' W 117°44'4 8.2
2018-Aug-09 17:00N 33°28' W 117°42'0 0.0
2018-Aug-09 16:30N 33°28' W 117°42'0 0.1
2018-Aug-09 16:00N 33°28' W 117°41'0 0.0
2018-Aug-09 15:30N 33°28' W 117°41'0 0.0
2018-Aug-09 15:00N 33°28' W 117°41'0 0.1
2018-Aug-09 14:30N 33°28' W 117°42'0 0.0
2018-Aug-09 14:00N 33°28' W 117°42'0 0.0
2018-Aug-09 13:30N 33°28' W 117°42'0 0.0
2018-Aug-09 13:00N 33°28' W 117°42'0 0.0
2018-Aug-09 12:30N 33°28' W 117°42'0 0.0
2018-Aug-09 12:00N 33°28' W 117°42'0 0.0
2018-Aug-09 11:30N 33°28' W 117°42'0 0.0
2018-Aug-09 11:00N 33°28' W 117°42'0 0.0
2018-Aug-09 10:31N 33°28' W 117°42'0 0.0
2018-Aug-09 10:01N 33°28' W 117°42'0 0.0
2018-Aug-09 09:31N 33°28' W 117°42'0 0.0
2018-Aug-09 09:01N 33°28' W 117°42'0 0.0
2018-Aug-09 08:31N 33°28' W 117°42'0 0.0
2018-Aug-09 08:01N 33°28' W 117°42'0 0.0
2018-Aug-09 07:30N 33°28' W 117°42'0 0.0
2018-Aug-09 07:00N 33°28' W 117°42'0 0.0
2018-Aug-09 06:30N 33°28' W 117°42'0 0.0
2018-Aug-09 06:00N 33°28' W 117°42'0 0.0
2018-Aug-09 05:30N 33°28' W 117°42'0 0.0
2018-Aug-09 05:00N 33°28' W 117°42'0 0.0
2018-Aug-09 04:30N 33°28' W 117°42'0 0.0
2018-Aug-09 04:00N 33°28' W 117°42'0 0.0
2018-Aug-09 03:30N 33°28' W 117°42'0 0.0
2018-Aug-09 03:01N 33°28' W 117°42'0 0.0
2018-Aug-09 02:31N 33°28' W 117°42'0 0.1
2018-Aug-09 02:00N 33°28' W 117°42'5 9.3
2018-Aug-09 01:31N 33°23' W 117°41'1 1.8
2018-Aug-09 01:00N 33°23' W 117°42'5 9.1
2018-Aug-09 00:30N 33°27' W 117°45'3 6.2
2018-Aug-09 00:00N 33°28' W 117°42'0 0.0
2018-Aug-08 23:31N 33°28' W 117°42'0 0.0
2018-Aug-08 23:00N 33°28' W 117°42'3 6.8
2018-Aug-08 22:30N 33°25' W 117°44'1 1.3
2018-Aug-08 22:00N 33°26' W 117°44'1 1.8
2018-Aug-08 21:30N 33°26' W 117°44'2 4.5
2018-Aug-08 20:59N 33°28' W 117°42'4 7.9
2018-Aug-08 20:30N 33°24' W 117°43'2 4.1
2018-Aug-08 20:00N 33°22' W 117°42'3 6.7
2018-Aug-08 19:30N 33°25' W 117°42'2 4.9
2018-Aug-08 19:01N 33°28' W 117°42'4 8.0
2018-Aug-08 18:30N 33°24' W 117°43'2 4.8
2018-Aug-08 18:00N 33°26' W 117°43'0 0.3
2018-Aug-08 17:31N 33°26' W 117°43'2 3.9
2018-Aug-08 17:00N 33°28' W 117°42'0 0.0
2018-Aug-08 16:29N 33°28' W 117°42'0 0.0
2018-Aug-08 16:01N 33°28' W 117°42'0 0.0
2018-Aug-08 15:31N 33°28' W 117°42'0 0.0
2018-Aug-08 15:01N 33°28' W 117°42'0 0.0
2018-Aug-08 14:31N 33°28' W 117°42'0 0.0
2018-Aug-08 14:00N 33°28' W 117°42'0 0.0
2018-Aug-08 13:31N 33°28' W 117°42'0 0.0
2018-Aug-08 13:01N 33°28' W 117°42'0 0.0
2018-Aug-08 12:30N 33°28' W 117°42'0 0.0
2018-Aug-08 12:01N 33°28' W 117°42'0 0.0
2018-Aug-08 11:31N 33°28' W 117°42'0 0.0
2018-Aug-08 11:00N 33°28' W 117°42'0 0.0
2018-Aug-08 10:31N 33°28' W 117°42'0 0.0
2018-Aug-08 10:01N 33°28' W 117°42'0 0.0
2018-Aug-08 09:29N 33°28' W 117°42'0 0.0
2018-Aug-08 09:00N 33°28' W 117°42'0 0.0
2018-Aug-08 08:30N 33°28' W 117°42'0 0.0
2018-Aug-08 08:01N 33°28' W 117°42'0 0.0
2018-Aug-08 07:31N 33°28' W 117°42'0 0.0
2018-Aug-08 07:01N 33°28' W 117°42'0 0.0
2018-Aug-08 06:28N 33°28' W 117°42'0 0.0
2018-Aug-08 06:01N 33°28' W 117°42'0 0.0
2018-Aug-08 05:30N 33°28' W 117°42'0 0.0
2018-Aug-08 05:01N 33°28' W 117°42'0 0.0
2018-Aug-08 04:30N 33°28' W 117°42'0 0.0
2018-Aug-08 04:00N 33°28' W 117°42'0 0.0
2018-Aug-08 03:30N 33°28' W 117°42'0 0.0
2018-Aug-08 03:01N 33°28' W 117°42'0 0.0
2018-Aug-08 02:30N 33°28' W 117°42'0 0.4
2018-Aug-08 02:00N 33°27' W 117°42'3 5.3
2018-Aug-08 01:31N 33°27' W 117°45'2 4.6
2018-Aug-08 01:00N 33°25' W 117°46'1 2.6
2018-Aug-08 00:30N 33°25' W 117°44'4 7.3
2018-Aug-08 00:00N 33°28' W 117°42'0 0.0
2018-Aug-07 23:30N 33°28' W 117°42'0 0.0
2018-Aug-07 23:01N 33°28' W 117°42'0 0.0
2018-Aug-07 22:31N 33°28' W 117°42'0 0.7
2018-Aug-07 22:00N 33°27' W 117°41'5 9.9
2018-Aug-07 21:31N 33°23' W 117°38'4 7.4
2018-Aug-07 21:01N 33°21' W 117°34'0 0.0
2018-Aug-07 20:31N 33°21' W 117°34'1 1.0
2018-Aug-07 20:00N 33°21' W 117°34'0 0.0
2018-Aug-07 19:30N 33°21' W 117°34'2 4.5
2018-Aug-07 19:00N 33°19' W 117°32'2 5.0
2018-Aug-07 18:30N 33°17' W 117°30'0 0.8
2018-Aug-07 18:01N 33°18' W 117°30'2 4.1
2018-Aug-07 17:31N 33°19' W 117°32'2 3.3
2018-Aug-07 17:00N 33°20' W 117°33'4 7.4
2018-Aug-07 16:30N 33°23' W 117°37'0 0.3
2018-Aug-07 16:00N 33°23' W 117°37'0 0.0
2018-Aug-07 15:30N 33°23' W 117°37'0 0.0
2018-Aug-07 15:01N 33°23' W 117°37'0 0.2
2018-Aug-07 14:31N 33°23' W 117°37'2 4.3
2018-Aug-07 14:01N 33°24' W 117°39'4 7.8
2018-Aug-07 13:30N 33°27' W 117°41'0 0.2
2018-Aug-07 13:01N 33°28' W 117°42'0 0.0
2018-Aug-07 12:30N 33°28' W 117°42'0 0.0
2018-Aug-07 12:01N 33°28' W 117°42'0 0.0
2018-Aug-07 11:30N 33°28' W 117°42'0 0.0
2018-Aug-07 11:00N 33°28' W 117°42'0 0.0
2018-Aug-07 10:31N 33°28' W 117°42'0 0.0
2018-Aug-07 10:00N 33°28' W 117°42'0 0.0
2018-Aug-07 09:31N 33°28' W 117°42'0 0.0
2018-Aug-07 09:01N 33°28' W 117°42'0 0.0
2018-Aug-07 08:31N 33°28' W 117°42'0 0.0
2018-Aug-07 08:00N 33°28' W 117°42'0 0.0
2018-Aug-07 07:30N 33°28' W 117°42'0 0.0
2018-Aug-07 07:01N 33°28' W 117°42'0 0.0
2018-Aug-07 06:30N 33°28' W 117°42'0 0.0
2018-Aug-07 05:59N 33°28' W 117°42'0 0.0
2018-Aug-07 05:31N 33°28' W 117°42'0 0.0
2018-Aug-07 05:00N 33°28' W 117°42'0 0.0
2018-Aug-07 04:31N 33°28' W 117°42'0 0.0
2018-Aug-07 04:01N 33°28' W 117°42'0 0.0
2018-Aug-07 03:31N 33°28' W 117°42'0 0.0
2018-Aug-07 03:01N 33°28' W 117°42'0 0.0
2018-Aug-07 02:30N 33°28' W 117°42'0 0.0
2018-Aug-07 02:01N 33°28' W 117°42'0 0.0
2018-Aug-07 01:31N 33°28' W 117°42'0 0.0
2018-Aug-07 01:01N 33°28' W 117°42'0 0.0
2018-Aug-07 00:29N 33°28' W 117°42'1 2.2
2018-Aug-07 00:01N 33°27' W 117°41'5 9.3
2018-Aug-06 23:31N 33°23' W 117°37'0 0.0
2018-Aug-06 23:00N 33°23' W 117°37'1 1.0
2018-Aug-06 22:31N 33°23' W 117°37'0 0.0
2018-Aug-06 22:00N 33°23' W 117°37'0 0.0
2018-Aug-06 21:31N 33°23' W 117°37'1 2.1
2018-Aug-06 21:00N 33°24' W 117°37'0 0.5
2018-Aug-06 20:31N 33°24' W 117°38'0 0.5
2018-Aug-06 20:00N 33°24' W 117°38'1 2.4
2018-Aug-06 19:30N 33°25' W 117°39'3 7.0
2018-Aug-06 19:00N 33°28' W 117°42'0 0.6
2018-Aug-06 18:30N 33°27' W 117°41'2 4.4
2018-Aug-06 18:00N 33°26' W 117°40'0 0.1
2018-Aug-06 17:30N 33°26' W 117°39'2 3.7
2018-Aug-06 17:01N 33°26' W 117°42'3 5.4
2018-Aug-06 16:31N 33°28' W 117°44'0 0.7
2018-Aug-06 16:00N 33°29' W 117°44'0 0.0
2018-Aug-06 15:30N 33°29' W 117°44'0 0.0
2018-Aug-06 15:01N 33°29' W 117°44'1 1.3
2018-Aug-06 14:30N 33°28' W 117°44'2 4.6
2018-Aug-06 14:00N 33°27' W 117°41'0 0.2
2018-Aug-06 13:31N 33°28' W 117°42'0 0.0
2018-Aug-06 13:01N 33°28' W 117°42'0 0.0
2018-Aug-06 12:31N 33°28' W 117°42'0 0.0
2018-Aug-06 11:59N 33°28' W 117°42'0 0.0
2018-Aug-06 11:30N 33°28' W 117°42'0 0.0
2018-Aug-06 11:01N 33°28' W 117°42'0 0.0
2018-Aug-06 10:31N 33°28' W 117°42'0 0.0
2018-Aug-06 10:01N 33°28' W 117°42'0 0.0
2018-Aug-06 09:30N 33°28' W 117°42'0 0.0
2018-Aug-06 09:01N 33°28' W 117°42'  
Track history (hours):
 
Tides and Currents Weather Stations Pressure Air Temp Water Temp Dewpoint Dewpoint Depression Visibility Wind Speed Wind Dir Waves Ship Positions

Dana Pride

Last reported at 2018-Aug-16 08:30 UTC. Time now 2018-Aug-16 08:44 UTC.
Position N 33°28' W 117°42'.

Type: Fishing. MMSI: 366849310.

Date/timePositionNaut miles runAvg speedWind from/ knotsBaromVisibWave heightAir tempDewpointWater temp
2018-Aug-16 08:30N 33°28' W 117°42'0 0.0
2018-Aug-16 08:00N 33°28' W 117°42'0 0.0
2018-Aug-16 07:30N 33°28' W 117°42'0 0.0
2018-Aug-16 07:00N 33°28' W 117°42'0 0.0
2018-Aug-16 06:30N 33°28' W 117°42'0 0.0
2018-Aug-16 06:00N 33°28' W 117°42'0 0.0
2018-Aug-16 05:30N 33°28' W 117°42'0 0.0
2018-Aug-16 05:00N 33°28' W 117°42'0 0.0
2018-Aug-16 04:30N 33°28' W 117°42'0 0.0
2018-Aug-16 04:00N 33°28' W 117°42'0 0.0
2018-Aug-16 03:30N 33°28' W 117°42'0 0.0
2018-Aug-16 03:00N 33°28' W 117°42'0 0.0
2018-Aug-16 02:30N 33°28' W 117°42'0 0.0
2018-Aug-16 02:00N 33°28' W 117°42'3 5.9
2018-Aug-16 01:30N 33°25' W 117°44'3 5.4
2018-Aug-16 01:00N 33°23' W 117°46'3 5.1
2018-Aug-16 00:30N 33°26' W 117°45'4 7.1
2018-Aug-16 00:00N 33°28' W 117°42'0 0.0
2018-Aug-15 23:31N 33°28' W 117°42'0 0.2
2018-Aug-15 23:00N 33°28' W 117°41'0 0.1
2018-Aug-15 22:30N 33°28' W 117°41'3 5.6
2018-Aug-15 22:00N 33°29' W 117°45'611.0
2018-Aug-15 21:30N 33°33' W 117°49'1 2.9
2018-Aug-15 21:00N 33°34' W 117°50'1 2.4
2018-Aug-15 20:30N 33°35' W 117°51'0 0.2
2018-Aug-15 20:00N 33°35' W 117°51'1 1.0
2018-Aug-15 19:30N 33°35' W 117°52'2 4.2
2018-Aug-15 18:57N 33°35' W 117°55'3 6.6
2018-Aug-15 18:30N 33°36' W 117°58'0 0.0
2018-Aug-15 17:59N 33°36' W 117°58'1 1.2
2018-Aug-15 17:30N 33°36' W 117°57'5 9.9
2018-Aug-15 16:59N 33°35' W 117°51'0 0.1
2018-Aug-15 16:30N 33°35' W 117°51'0 0.0
2018-Aug-15 16:00N 33°35' W 117°51'0 0.4
2018-Aug-15 15:30N 33°34' W 117°51'1 1.9
2018-Aug-15 15:00N 33°34' W 117°50'1 2.1
2018-Aug-15 14:30N 33°33' W 117°50'510.6
2018-Aug-15 14:00N 33°29' W 117°46'4 8.4
2018-Aug-15 13:30N 33°28' W 117°41'0 0.2
2018-Aug-15 13:00N 33°28' W 117°42'0 0.0
2018-Aug-15 12:31N 33°28' W 117°42'0 0.0
2018-Aug-15 12:01N 33°28' W 117°42'0 0.0
2018-Aug-15 11:30N 33°28' W 117°42'0 0.0
2018-Aug-15 11:00N 33°28' W 117°42'0 0.0
2018-Aug-15 10:30N 33°28' W 117°42'0 0.0
2018-Aug-15 10:00N 33°28' W 117°42'0 0.0
2018-Aug-15 09:27N 33°28' W 117°42'0 0.0
2018-Aug-15 09:00N 33°28' W 117°42'0 0.0
2018-Aug-15 08:30N 33°28' W 117°42'0 0.0
2018-Aug-15 08:00N 33°28' W 117°42'0 0.0
2018-Aug-15 07:29N 33°28' W 117°42'0 0.0
2018-Aug-15 07:00N 33°28' W 117°42'0 0.0
2018-Aug-15 06:30N 33°28' W 117°42'0 0.0
2018-Aug-15 06:00N 33°28' W 117°42'0 0.0
2018-Aug-15 05:31N 33°28' W 117°42'0 0.0
2018-Aug-15 05:00N 33°28' W 117°42'0 0.0
2018-Aug-15 04:30N 33°28' W 117°42'0 0.0
2018-Aug-15 04:00N 33°28' W 117°42'0 0.0
2018-Aug-15 03:31N 33°28' W 117°42'0 0.0
2018-Aug-15 03:00N 33°28' W 117°42'0 0.0
2018-Aug-15 02:30N 33°28' W 117°42'0 0.0
2018-Aug-15 02:00N 33°28' W 117°42'2 3.9
2018-Aug-15 01:30N 33°26' W 117°43'1 1.2
2018-Aug-15 01:00N 33°25' W 117°43'1 1.3
2018-Aug-15 00:30N 33°26' W 117°44'3 5.8
2018-Aug-15 00:00N 33°28' W 117°42'0 0.0
2018-Aug-14 23:30N 33°28' W 117°42'1 1.1
2018-Aug-14 23:00N 33°27' W 117°42'4 7.5
2018-Aug-14 22:30N 33°26' W 117°46'1 1.8
2018-Aug-14 22:00N 33°25' W 117°46'2 4.6
2018-Aug-14 21:30N 33°26' W 117°43'2 4.3
2018-Aug-14 21:00N 33°28' W 117°42'4 7.8
2018-Aug-14 20:30N 33°25' W 117°45'2 3.7
2018-Aug-14 20:00N 33°25' W 117°47'2 4.6
2018-Aug-14 19:30N 33°27' W 117°45'3 6.1
2018-Aug-14 19:00N 33°28' W 117°42'3 5.9
2018-Aug-14 18:30N 33°28' W 117°45'1 2.2
2018-Aug-14 18:00N 33°27' W 117°46'2 3.8
2018-Aug-14 17:29N 33°25' W 117°44'3 6.6
2018-Aug-14 17:00N 33°28' W 117°42'0 0.0
2018-Aug-14 16:30N 33°28' W 117°42'0 0.0
2018-Aug-14 16:00N 33°28' W 117°42'0 0.0
2018-Aug-14 15:30N 33°28' W 117°42'0 0.0
2018-Aug-14 15:00N 33°28' W 117°42'0 0.0
2018-Aug-14 14:30N 33°28' W 117°42'0 0.0
2018-Aug-14 14:00N 33°28' W 117°42'0 0.0
2018-Aug-14 13:30N 33°28' W 117°42'0 0.0
2018-Aug-14 13:00N 33°28' W 117°42'0 0.0
2018-Aug-14 12:30N 33°28' W 117°42'0 0.0
2018-Aug-14 12:00N 33°28' W 117°42'0 0.0
2018-Aug-14 11:30N 33°28' W 117°42'0 0.0
2018-Aug-14 11:00N 33°28' W 117°42'0 0.0
2018-Aug-14 10:30N 33°28' W 117°42'0 0.0
2018-Aug-14 10:00N 33°28' W 117°42'0 0.0
2018-Aug-14 09:30N 33°28' W 117°42'0 0.0
2018-Aug-14 09:00N 33°28' W 117°42'0 0.0
2018-Aug-14 08:30N 33°28' W 117°42'0 0.0
2018-Aug-14 08:00N 33°28' W 117°42'0 0.0
2018-Aug-14 07:30N 33°28' W 117°42'0 0.0
2018-Aug-14 07:00N 33°28' W 117°42'0 0.0
2018-Aug-14 06:30N 33°28' W 117°42'0 0.0
2018-Aug-14 05:59N 33°28' W 117°42'0 0.0
2018-Aug-14 05:29N 33°28' W 117°42'0 0.0
2018-Aug-14 04:59N 33°28' W 117°42'0 0.0
2018-Aug-14 04:30N 33°28' W 117°42'0 0.0
2018-Aug-14 04:00N 33°28' W 117°42'0 0.0
2018-Aug-14 03:30N 33°28' W 117°42'0 0.0
2018-Aug-14 03:00N 33°28' W 117°42'0 0.0
2018-Aug-14 02:30N 33°28' W 117°42'0 0.0
2018-Aug-14 01:58N 33°28' W 117°42'0 0.0
2018-Aug-14 01:30N 33°28' W 117°42'0 0.0
2018-Aug-14 01:00N 33°28' W 117°42'0 0.0
2018-Aug-14 00:30N 33°28' W 117°42'2 4.2
2018-Aug-14 00:00N 33°26' W 117°40'4 8.7
2018-Aug-13 23:30N 33°23' W 117°36'0 0.0
2018-Aug-13 23:00N 33°23' W 117°36'0 0.7
2018-Aug-13 22:30N 33°23' W 117°37'0 0.0
2018-Aug-13 22:00N 33°23' W 117°37'0 0.1
2018-Aug-13 21:30N 33°23' W 117°37'0 0.8
2018-Aug-13 21:00N 33°23' W 117°37'0 0.0
2018-Aug-13 20:30N 33°23' W 117°37'1 2.5
2018-Aug-13 20:00N 33°24' W 117°38'4 8.9
2018-Aug-13 19:30N 33°27' W 117°42'0 0.4
2018-Aug-13 19:00N 33°28' W 117°42'0 0.0
2018-Aug-13 18:29N 33°28' W 117°42'0 0.5
2018-Aug-13 18:00N 33°27' W 117°42'2 4.0
2018-Aug-13 17:30N 33°27' W 117°44'2 4.1
2018-Aug-13 17:00N 33°28' W 117°42'0 0.0
2018-Aug-13 16:30N 33°28' W 117°42'0 0.0
2018-Aug-13 16:00N 33°28' W 117°42'0 0.0
2018-Aug-13 15:30N 33°28' W 117°42'0 0.0
2018-Aug-13 15:00N 33°28' W 117°42'0 0.0
2018-Aug-13 14:30N 33°28' W 117°42'0 0.0
2018-Aug-13 14:00N 33°28' W 117°42'0 0.0
2018-Aug-13 13:30N 33°28' W 117°42'0 0.0
2018-Aug-13 13:00N 33°28' W 117°42'0 0.0
2018-Aug-13 12:30N 33°28' W 117°42'0 0.0
2018-Aug-13 12:00N 33°28' W 117°42'0 0.0
2018-Aug-13 11:30N 33°28' W 117°42'0 0.0
2018-Aug-13 11:00N 33°28' W 117°42'0 0.0
2018-Aug-13 10:30N 33°28' W 117°42'0 0.0
2018-Aug-13 10:00N 33°28' W 117°42'0 0.0
2018-Aug-13 09:30N 33°28' W 117°42'0 0.0
2018-Aug-13 09:00N 33°28' W 117°42'0 0.0
2018-Aug-13 08:30N 33°28' W 117°42'0 0.0
2018-Aug-13 07:59N 33°28' W 117°42'0 0.0
2018-Aug-13 07:30N 33°28' W 117°42'0 0.0
2018-Aug-13 07:00N 33°28' W 117°42'0 0.0
2018-Aug-13 06:30N 33°28' W 117°42'0 0.0
2018-Aug-13 06:00N 33°28' W 117°42'0 0.0
2018-Aug-13 05:30N 33°28' W 117°42'0 0.0
2018-Aug-13 05:00N 33°28' W 117°42'0 0.0
2018-Aug-13 04:30N 33°28' W 117°42'0 0.0
2018-Aug-13 04:00N 33°28' W 117°42'0 0.0
2018-Aug-13 03:30N 33°28' W 117°42'0 0.0
2018-Aug-13 03:00N 33°28' W 117°42'0 0.0
2018-Aug-13 02:30N 33°28' W 117°42'0 0.0
2018-Aug-13 02:00N 33°28' W 117°42'0 0.0
2018-Aug-13 01:30N 33°28' W 117°42'0 0.0
2018-Aug-13 00:57N 33°28' W 117°42'0 0.0
2018-Aug-13 00:30N 33°28' W 117°42'1 2.4
2018-Aug-13 00:00N 33°27' W 117°43'611.1
2018-Aug-12 23:30N 33°26' W 117°49'611.3
2018-Aug-12 23:00N 33°24' W 117°56'611.4
2018-Aug-12 22:30N 33°23' W 118°02'611.3
2018-Aug-12 22:00N 33°22' W 118°09'611.5
2018-Aug-12 21:30N 33°20' W 118°16'2 4.8
2018-Aug-12 21:00N 33°19' W 118°18'0 0.9
2018-Aug-12 20:30N 33°19' W 118°18'3 5.2
2018-Aug-12 19:59N 33°18' W 118°21'0 0.0
2018-Aug-12 19:29N 33°18' W 118°21'1 1.8
2018-Aug-12 19:00N 33°19' W 118°22'0 0.1
2018-Aug-12 18:30N 33°19' W 118°22'2 4.4
2018-Aug-12 18:00N 33°19' W 118°25'0 0.4
2018-Aug-12 17:30N 33°19' W 118°25'3 5.6
2018-Aug-12 16:56N 33°18' W 118°21'0 0.1
2018-Aug-12 16:30N 33°18' W 118°21'2 3.0
2018-Aug-12 16:00N 33°18' W 118°19'611.1
2018-Aug-12 15:30N 33°19' W 118°13'4 8.5
2018-Aug-12 15:00N 33°20' W 118°08'511.0
2018-Aug-12 14:30N 33°22' W 118°02'510.8
2018-Aug-12 14:00N 33°23' W 117°56'611.0
2018-Aug-12 13:30N 33°25' W 117°49'510.9
2018-Aug-12 13:00N 33°26' W 117°43'2 3.5
2018-Aug-12 12:30N 33°27' W 117°41'0 0.2
2018-Aug-12 12:00N 33°28' W 117°42'0 0.0
2018-Aug-12 11:30N 33°28' W 117°42'0 0.0
2018-Aug-12 11:00N 33°28' W 117°42'0 0.0
2018-Aug-12 10:30N 33°28' W 117°42'0 0.0
2018-Aug-12 10:00N 33°28' W 117°42'0 0.0
2018-Aug-12 09:30N 33°28' W 117°42'0 0.0
2018-Aug-12 09:00N 33°28' W 117°42'0 0.0
2018-Aug-12 08:30N 33°28' W 117°42'0 0.0
2018-Aug-12 08:00N 33°28' W 117°42'0 0.0
2018-Aug-12 07:30N 33°28' W 117°42'0 0.0
2018-Aug-12 07:00N 33°28' W 117°42'0 0.0
2018-Aug-12 06:30N 33°28' W 117°42'0 0.0
2018-Aug-12 06:00N 33°28' W 117°42'0 0.0
2018-Aug-12 05:28N 33°28' W 117°42'0 0.0
2018-Aug-12 05:00N 33°28' W 117°42'0 0.1
2018-Aug-12 04:30N 33°28' W 117°42'0 0.1
2018-Aug-12 04:00N 33°28' W 117°42'0 0.9
2018-Aug-12 03:30N 33°28' W 117°42'0 0.9
2018-Aug-12 03:00N 33°28' W 117°42'0 0.0
2018-Aug-12 02:30N 33°28' W 117°42'0 0.0
2018-Aug-12 02:00N 33°28' W 117°42'0 0.5
2018-Aug-12 01:30N 33°27' W 117°42'0 0.5
2018-Aug-12 01:00N 33°28' W 117°42'0 0.0
2018-Aug-12 00:30N 33°28' W 117°42'0 0.0
2018-Aug-12 00:00N 33°28' W 117°42'3 6.9
2018-Aug-11 23:30N 33°24' W 117°40'3 6.0
2018-Aug-11 23:00N 33°23' W 117°37'0 0.0
2018-Aug-11 22:30N 33°23' W 117°37'0 0.0
2018-Aug-11 22:00N 33°23' W 117°37'0 0.0
2018-Aug-11 21:30N 33°23' W 117°37'0 0.1
2018-Aug-11 21:00N 33°23' W 117°37'2 3.6
2018-Aug-11 20:30N 33°24' W 117°38'0 0.0
2018-Aug-11 20:00N 33°24' W 117°38'1 1.4
2018-Aug-11 19:30N 33°25' W 117°39'4 7.1
2018-Aug-11 19:00N 33°28' W 117°42'0 0.8
2018-Aug-11 18:30N 33°27' W 117°42'2 4.7
2018-Aug-11 18:00N 33°28' W 117°44'0 0.0
2018-Aug-11 17:30N 33°28' W 117°44'0 0.2
2018-Aug-11 17:00N 33°29' W 117°44'0 0.0
2018-Aug-11 16:30N 33°29' W 117°44'0 0.3
2018-Aug-11 15:59N 33°28' W 117°44'0 0.0
2018-Aug-11 15:30N 33°28' W 117°44'0 0.0
2018-Aug-11 15:00N 33°28' W 117°44'0 0.0
2018-Aug-11 14:30N 33°28' W 117°44'3 5.2
2018-Aug-11 14:00N 33°27' W 117°42'1 2.2
2018-Aug-11 13:30N 33°28' W 117°42'0 0.0
2018-Aug-11 13:00N 33°28' W 117°42'0 0.0
2018-Aug-11 12:30N 33°28' W 117°42'0 0.0
2018-Aug-11 12:00N 33°28' W 117°42'0 0.0
2018-Aug-11 11:30N 33°28' W 117°42'0 0.0
2018-Aug-11 11:00N 33°28' W 117°42'0 0.0
2018-Aug-11 10:30N 33°28' W 117°42'0 0.0
2018-Aug-11 10:00N 33°28' W 117°42'0 0.0
2018-Aug-11 09:30N 33°28' W 117°42'0 0.0
2018-Aug-11 09:00N 33°28' W 117°42'0 0.0
2018-Aug-11 08:30N 33°28' W 117°42'0 0.0
2018-Aug-11 08:00N 33°28' W 117°42'0 0.0
2018-Aug-11 07:30N 33°28' W 117°42'0 0.0
2018-Aug-11 07:00N 33°28' W 117°42'0 0.0
2018-Aug-11 06:30N 33°28' W 117°42'0 0.0
2018-Aug-11 06:00N 33°28' W 117°42'0 0.0
2018-Aug-11 05:30N 33°28' W 117°42'0 0.0
2018-Aug-11 05:00N 33°28' W 117°42'0 0.0
2018-Aug-11 04:30N 33°28' W 117°42'0 0.0
2018-Aug-11 04:00N 33°28' W 117°42'0 0.0
2018-Aug-11 03:30N 33°28' W 117°42'0 0.0
2018-Aug-11 03:00N 33°28' W 117°42'0 0.0
2018-Aug-11 02:30N 33°28' W 117°42'0 0.4
2018-Aug-11 02:00N 33°27' W 117°42'2 4.6
2018-Aug-11 01:30N 33°25' W 117°42'1 1.3
2018-Aug-11 01:00N 33°25' W 117°42'1 1.9
2018-Aug-11 00:30N 33°25' W 117°42'2 4.4
2018-Aug-11 00:00N 33°28' W 117°42'0 0.0
2018-Aug-10 23:30N 33°28' W 117°42'0 0.0
2018-Aug-10 23:00N 33°28' W 117°42'0 0.0
2018-Aug-10 22:30N 33°28' W 117°42'1 2.9
2018-Aug-10 22:00N 33°27' W 117°43'510.7
2018-Aug-10 21:30N 33°31' W 117°48'511.0
2018-Aug-10 21:00N 33°34' W 117°54'4 8.4
2018-Aug-10 20:30N 33°36' W 117°58'0 0.1
2018-Aug-10 20:00N 33°36' W 117°58'0 0.3
2018-Aug-10 19:29N 33°36' W 117°58'0 0.1
2018-Aug-10 19:00N 33°36' W 117°58'0 0.0
2018-Aug-10 18:30N 33°36' W 117°58'0 0.0
2018-Aug-10 18:00N 33°36' W 117°58'2 4.0
2018-Aug-10 17:30N 33°35' W 117°56'4 7.2
2018-Aug-10 16:59N 33°35' W 117°51'0 0.0
2018-Aug-10 16:30N 33°35' W 117°51'1 2.2
2018-Aug-10 16:00N 33°34' W 117°50'0 0.0
2018-Aug-10 15:30N 33°34' W 117°50'0 0.5
2018-Aug-10 15:00N 33°34' W 117°50'4 8.9
2018-Aug-10 14:30N 33°29' W 117°50'5 9.2
2018-Aug-10 14:00N 33°26' W 117°46'4 7.5
2018-Aug-10 13:30N 33°27' W 117°41'0 0.2
2018-Aug-10 13:00N 33°28' W 117°42'0 0.0
2018-Aug-10 12:30N 33°28' W 117°42'0 0.0
2018-Aug-10 12:00N 33°28' W 117°42'0 0.0
2018-Aug-10 11:30N 33°28' W 117°42'0 0.0
2018-Aug-10 11:00N 33°28' W 117°42'0 0.0
2018-Aug-10 10:30N 33°28' W 117°42'0 0.0
2018-Aug-10 10:00N 33°28' W 117°42'0 0.0
2018-Aug-10 09:30N 33°28' W 117°42'0 0.0
2018-Aug-10 09:00N 33°28' W 117°42'0 0.0
2018-Aug-10 08:30N 33°28' W 117°42'0 0.0
2018-Aug-10 08:00N 33°28' W 117°42'0 0.0
2018-Aug-10 07:30N 33°28' W 117°42'0 0.0
2018-Aug-10 07:00N 33°28' W 117°42'0 0.0
2018-Aug-10 06:30N 33°28' W 117°42'0 0.0
2018-Aug-10 06:00N 33°28' W 117°42'0 0.0
2018-Aug-10 05:22N 33°28' W 117°42'0 0.0
2018-Aug-10 05:00N 33°28' W 117°42'0 0.0
2018-Aug-10 04:30N 33°28' W 117°42'0 0.0
2018-Aug-10 04:00N 33°28' W 117°42'0 0.0
2018-Aug-10 03:30N 33°28' W 117°42'0 0.0
2018-Aug-10 03:00N 33°28' W 117°42'0 0.0
2018-Aug-10 02:30N 33°28' W 117°42'0 0.1
2018-Aug-10 02:00N 33°28' W 117°42'3 6.7
2018-Aug-10 01:30N 33°25' W 117°44'1 2.1
2018-Aug-10 01:00N 33°26' W 117°43'1 1.6
2018-Aug-10 00:30N 33°26' W 117°42'2 4.3
2018-Aug-10 00:00N 33°28' W 117°42'0 0.0
2018-Aug-09 23:30N 33°28' W 117°42'1 2.8
2018-Aug-09 23:00N 33°27' W 117°43'1 1.7
2018-Aug-09 22:30N 33°26' W 117°43'1 2.3
2018-Aug-09 22:00N 33°25' W 117°42'0 0.9
2018-Aug-09 21:30N 33°25' W 117°43'2 4.9
2018-Aug-09 21:01N 33°28' W 117°42'3 5.2
2018-Aug-09 20:30N 33°26' W 117°44'2 3.4
2018-Aug-09 20:00N 33°25' W 117°42'0 0.4
2018-Aug-09 19:30N 33°25' W 117°42'3 5.1
2018-Aug-09 19:00N 33°28' W 117°42'2 4.8
2018-Aug-09 18:30N 33°25' W 117°42'2 3.9
2018-Aug-09 18:00N 33°23' W 117°42'2 3.4
2018-Aug-09 17:30N 33°24' W 117°44'4 8.2
2018-Aug-09 17:00N 33°28' W 117°42'0 0.0
2018-Aug-09 16:30N 33°28' W 117°42'0 0.1
2018-Aug-09 16:00N 33°28' W 117°41'0 0.0
2018-Aug-09 15:30N 33°28' W 117°41'0 0.0
2018-Aug-09 15:00N 33°28' W 117°41'0 0.1
2018-Aug-09 14:30N 33°28' W 117°42'0 0.0
2018-Aug-09 14:00N 33°28' W 117°42'0 0.0
2018-Aug-09 13:30N 33°28' W 117°42'0 0.0
2018-Aug-09 13:00N 33°28' W 117°42'0 0.0
2018-Aug-09 12:30N 33°28' W 117°42'0 0.0
2018-Aug-09 12:00N 33°28' W 117°42'0 0.0
2018-Aug-09 11:30N 33°28' W 117°42'0 0.0
2018-Aug-09 11:00N 33°28' W 117°42'0 0.0
2018-Aug-09 10:31N 33°28' W 117°42'0 0.0
2018-Aug-09 10:01N 33°28' W 117°42'0 0.0
2018-Aug-09 09:31N 33°28' W 117°42'0 0.0
2018-Aug-09 09:01N 33°28' W 117°42'0 0.0
2018-Aug-09 08:31N 33°28' W 117°42'0 0.0
2018-Aug-09 08:01N 33°28' W 117°42'0 0.0
2018-Aug-09 07:30N 33°28' W 117°42'0 0.0
2018-Aug-09 07:00N 33°28' W 117°42'0 0.0
2018-Aug-09 06:30N 33°28' W 117°42'0 0.0
2018-Aug-09 06:00N 33°28' W 117°42'0 0.0
2018-Aug-09 05:30N 33°28' W 117°42'0 0.0
2018-Aug-09 05:00N 33°28' W 117°42'0 0.0
2018-Aug-09 04:30N 33°28' W 117°42'0 0.0
2018-Aug-09 04:00N 33°28' W 117°42'0 0.0
2018-Aug-09 03:30N 33°28' W 117°42'0 0.0
2018-Aug-09 03:01N 33°28' W 117°42'0 0.0
2018-Aug-09 02:31N 33°28' W 117°42'0 0.1
2018-Aug-09 02:00N 33°28' W 117°42'5 9.3
2018-Aug-09 01:31N 33°23' W 117°41'1 1.8
2018-Aug-09 01:00N 33°23' W 117°42'5 9.1
2018-Aug-09 00:30N 33°27' W 117°45'3 6.2
2018-Aug-09 00:00N 33°28' W 117°42'0 0.0
2018-Aug-08 23:31N 33°28' W 117°42'0 0.0
2018-Aug-08 23:00N 33°28' W 117°42'3 6.8
2018-Aug-08 22:30N 33°25' W 117°44'1 1.3
2018-Aug-08 22:00N 33°26' W 117°44'1 1.8
2018-Aug-08 21:30N 33°26' W 117°44'2 4.5
2018-Aug-08 20:59N 33°28' W 117°42'4 7.9
2018-Aug-08 20:30N 33°24' W 117°43'2 4.1
2018-Aug-08 20:00N 33°22' W 117°42'3 6.7
2018-Aug-08 19:30N 33°25' W 117°42'2 4.9
2018-Aug-08 19:01N 33°28' W 117°42'4 8.0
2018-Aug-08 18:30N 33°24' W 117°43'2 4.8
2018-Aug-08 18:00N 33°26' W 117°43'0 0.3
2018-Aug-08 17:31N 33°26' W 117°43'2 3.9
2018-Aug-08 17:00N 33°28' W 117°42'0 0.0
2018-Aug-08 16:29N 33°28' W 117°42'0 0.0
2018-Aug-08 16:01N 33°28' W 117°42'0 0.0
2018-Aug-08 15:31N 33°28' W 117°42'0 0.0
2018-Aug-08 15:01N 33°28' W 117°42'0 0.0
2018-Aug-08 14:31N 33°28' W 117°42'0 0.0
2018-Aug-08 14:00N 33°28' W 117°42'0 0.0
2018-Aug-08 13:31N 33°28' W 117°42'0 0.0
2018-Aug-08 13:01N 33°28' W 117°42'0 0.0
2018-Aug-08 12:30N 33°28' W 117°42'0 0.0
2018-Aug-08 12:01N 33°28' W 117°42'0 0.0
2018-Aug-08 11:31N 33°28' W 117°42'0 0.0
2018-Aug-08 11:00N 33°28' W 117°42'0 0.0
2018-Aug-08 10:31N 33°28' W 117°42'0 0.0
2018-Aug-08 10:01N 33°28' W 117°42'0 0.0
2018-Aug-08 09:29N 33°28' W 117°42'0 0.0
2018-Aug-08 09:00N 33°28' W 117°42'0 0.0
2018-Aug-08 08:30N 33°28' W 117°42'0 0.0
2018-Aug-08 08:01N 33°28' W 117°42'0 0.0
2018-Aug-08 07:31N 33°28' W 117°42'0 0.0
2018-Aug-08 07:01N 33°28' W 117°42'0 0.0
2018-Aug-08 06:28N 33°28' W 117°42'0 0.0
2018-Aug-08 06:01N 33°28' W 117°42'0 0.0
2018-Aug-08 05:30N 33°28' W 117°42'0 0.0
2018-Aug-08 05:01N 33°28' W 117°42'0 0.0
2018-Aug-08 04:30N 33°28' W 117°42'0 0.0
2018-Aug-08 04:00N 33°28' W 117°42'0 0.0
2018-Aug-08 03:30N 33°28' W 117°42'0 0.0
2018-Aug-08 03:01N 33°28' W 117°42'0 0.0
2018-Aug-08 02:30N 33°28' W 117°42'0 0.4
2018-Aug-08 02:00N 33°27' W 117°42'3 5.3
2018-Aug-08 01:31N 33°27' W 117°45'2 4.6
2018-Aug-08 01:00N 33°25' W 117°46'1 2.6
2018-Aug-08 00:30N 33°25' W 117°44'4 7.3
2018-Aug-08 00:00N 33°28' W 117°42'0 0.0
2018-Aug-07 23:30N 33°28' W 117°42'0 0.0
2018-Aug-07 23:01N 33°28' W 117°42'0 0.0
2018-Aug-07 22:31N 33°28' W 117°42'0 0.7
2018-Aug-07 22:00N 33°27' W 117°41'5 9.9
2018-Aug-07 21:31N 33°23' W 117°38'4 7.4
2018-Aug-07 21:01N 33°21' W 117°34'0 0.0
2018-Aug-07 20:31N 33°21' W 117°34'1 1.0
2018-Aug-07 20:00N 33°21' W 117°34'0 0.0
2018-Aug-07 19:30N 33°21' W 117°34'2 4.5
2018-Aug-07 19:00N 33°19' W 117°32'2 5.0
2018-Aug-07 18:30N 33°17' W 117°30'0 0.8
2018-Aug-07 18:01N 33°18' W 117°30'2 4.1
2018-Aug-07 17:31N 33°19' W 117°32'2 3.3
2018-Aug-07 17:00N 33°20' W 117°33'4 7.4
2018-Aug-07 16:30N 33°23' W 117°37'0 0.3
2018-Aug-07 16:00N 33°23' W 117°37'0 0.0
2018-Aug-07 15:30N 33°23' W 117°37'0 0.0
2018-Aug-07 15:01N 33°23' W 117°37'0 0.2
2018-Aug-07 14:31N 33°23' W 117°37'2 4.3
2018-Aug-07 14:01N 33°24' W 117°39'4 7.8
2018-Aug-07 13:30N 33°27' W 117°41'0 0.2
2018-Aug-07 13:01N 33°28' W 117°42'0 0.0
2018-Aug-07 12:30N 33°28' W 117°42'0 0.0
2018-Aug-07 12:01N 33°28' W 117°42'0 0.0
2018-Aug-07 11:30N 33°28' W 117°42'0 0.0
2018-Aug-07 11:00N 33°28' W 117°42'0 0.0
2018-Aug-07 10:31N 33°28' W 117°42'0 0.0
2018-Aug-07 10:00N 33°28' W 117°42'0 0.0
2018-Aug-07 09:31N 33°28' W 117°42'0 0.0
2018-Aug-07 09:01N 33°28' W 117°42'0 0.0
2018-Aug-07 08:31N 33°28' W 117°42'0 0.0
2018-Aug-07 08:00N 33°28' W 117°42'0 0.0
2018-Aug-07 07:30N 33°28' W 117°42'0 0.0
2018-Aug-07 07:01N 33°28' W 117°42'0 0.0
2018-Aug-07 06:30N 33°28' W 117°42'0 0.0
2018-Aug-07 05:59N 33°28' W 117°42'0 0.0
2018-Aug-07 05:31N 33°28' W 117°42'0 0.0
2018-Aug-07 05:00N 33°28' W 117°42'0 0.0
2018-Aug-07 04:31N 33°28' W 117°42'0 0.0
2018-Aug-07 04:01N 33°28' W 117°42'0 0.0
2018-Aug-07 03:31N 33°28' W 117°42'0 0.0
2018-Aug-07 03:01N 33°28' W 117°42'0 0.0
2018-Aug-07 02:30N 33°28' W 117°42'0 0.0
2018-Aug-07 02:01N 33°28' W 117°42'0 0.0
2018-Aug-07 01:31N 33°28' W 117°42'0 0.0
2018-Aug-07 01:01N 33°28' W 117°42'0 0.0
2018-Aug-07 00:29N 33°28' W 117°42'1 2.2
2018-Aug-07 00:01N 33°27' W 117°41'5 9.3
2018-Aug-06 23:31N 33°23' W 117°37'0 0.0
2018-Aug-06 23:00N 33°23' W 117°37'1 1.0
2018-Aug-06 22:31N 33°23' W 117°37'0 0.0
2018-Aug-06 22:00N 33°23' W 117°37'0 0.0
2018-Aug-06 21:31N 33°23' W 117°37'1 2.1
2018-Aug-06 21:00N 33°24' W 117°37'0 0.5
2018-Aug-06 20:31N 33°24' W 117°38'0 0.5
2018-Aug-06 20:00N 33°24' W 117°38'1 2.4
2018-Aug-06 19:30N 33°25' W 117°39'3 7.0
2018-Aug-06 19:00N 33°28' W 117°42'0 0.6
2018-Aug-06 18:30N 33°27' W 117°41'2 4.4
2018-Aug-06 18:00N 33°26' W 117°40'0 0.1
2018-Aug-06 17:30N 33°26' W 117°39'2 3.7
2018-Aug-06 17:01N 33°26' W 117°42'3 5.4
2018-Aug-06 16:31N 33°28' W 117°44'0 0.7
2018-Aug-06 16:00N 33°29' W 117°44'0 0.0
2018-Aug-06 15:30N 33°29' W 117°44'0 0.0
2018-Aug-06 15:01N 33°29' W 117°44'1 1.3
2018-Aug-06 14:30N 33°28' W 117°44'2 4.6
2018-Aug-06 14:00N 33°27' W 117°41'0 0.2
2018-Aug-06 13:31N 33°28' W 117°42'0 0.0
2018-Aug-06 13:01N 33°28' W 117°42'0 0.0
2018-Aug-06 12:31N 33°28' W 117°42'0 0.0
2018-Aug-06 11:59N 33°28' W 117°42'0 0.0
2018-Aug-06 11:30N 33°28' W 117°42'0 0.0
2018-Aug-06 11:01N 33°28' W 117°42'0 0.0
2018-Aug-06 10:31N 33°28' W 117°42'0 0.0
2018-Aug-06 10:01N 33°28' W 117°42'0 0.0
2018-Aug-06 09:30N 33°28' W 117°42'0 0.0
2018-Aug-06 09:01N 33°28' W 117°42'  

Dump ship's entire track history